Nearby METAR Reports

 

KI68 - Lebanon, Ohio, USA
Distance from station: SW 1mi, 3km
Updated: Wed, 29-Jun-2022 11:35pm EDT
Clear
Clear
 Wind from calm
Wind: Calm
Temperature: 68°F , 20°C
Dew Point: 54°F , 12°C
Humidity: 60%
Barometer: 30.25 inHg , 1024.4 hPa
Clouds: Clear
Visibility: 10 miles , 16 km
2022/06/30 03:35 KI68 300335Z AUTO 00000KT 10SM CLR 20/12 A3025 RMK AO1 T01950118
KLEX - Lexington, Kentucky, USA
Distance from station: SE 25mi, 38km
Updated: Wed, 29-Jun-2022 10:54pm EDT
Clear
Clear
 Wind from ENE
Wind: ENE 6 mph , 9 km/h
Temperature: 72°F , 22°C
Dew Point: 52°F , 11°C
Humidity: 50%
Barometer: 30.24 inHg , 1024 hPa
Clouds: Clear
Visibility: 10 miles , 16 km
2022/06/30 02:54 KLEX 300254Z AUTO 06005KT 10SM CLR 22/11 A3024 RMK AO2 SLP230 T02170111 53013
 
KFFT - Frankfort, Kentucky, USA
Distance from station: WNW 24mi, 38km
Updated: Wed, 29-Jun-2022 10:53pm EDT
Clear
Clear
 Wind from calm
Wind: Calm
Temperature: 66°F , 19°C
Dew Point: 55°F , 13°C
Humidity: 68%
Barometer: 30.22 inHg , 1023.4 hPa
Clouds: Clear
Visibility: 10 miles , 16 km
2022/06/30 02:53 KFFT 300253Z AUTO 00000KT 10SM CLR 19/13 A3022 RMK AO2 SLP228 T01940133 53011
KIOB - Mount Sterling, Kentucky, USA
Distance from station: E 28mi, 46km
Updated: Wed, 29-Jun-2022 11:15pm EDT
Clear
Clear
 Wind from calm
Wind: Calm
Temperature: 63°F , 17°C
Dew Point: 57°F , 14°C
Humidity: 83%
Barometer: 30.27 inHg , 1025.1 hPa
Clouds: Clear
Visibility: 10 miles , 16 km
2022/06/30 03:15 KIOB 300315Z AUTO 00000KT 10SM CLR 17/14 A3027 RMK AO2 PWINO
 
KDVK - Danville, Kentucky, USA
Distance from station: SSW 35mi, 56km
Updated: Mon, 20-Jun-2022 3:10am EDT
NOT Current

 Wind from calm
Wind: Calm
Barometer: 30.22 inHg , 1023.4 hPa
2022/06/20 07:10 KDVK 200710Z AUTO 00000KT A3022 RMK AO2 PWINO
K6I2 - Springfield, Kentucky, USA
Distance from station: SW 49mi, 80km
Updated: Wed, 29-Jun-2022 11:15pm EDT
Clear
Clear
 Wind from calm
Wind: Calm
Temperature: 73°F , 23°C
Dew Point: 55°F , 13°C
Humidity: 53%
Barometer: 30.24 inHg , 1024 hPa
Clouds: Clear
Visibility: 10 miles , 16 km
2022/06/30 03:15 K6I2 300315Z AUTO 00000KT 10SM CLR 23/13 A3024 RMK AO2
 
KSYM - Morehead, Kentucky, USA
Distance from station: ENE 51mi, 83km
Updated: Wed, 29-Jun-2022 11:15pm EDT
Haze, Clear
Haze, Clear
 Wind from calm
Wind: Calm
Temperature: 70°F , 21°C
Dew Point: 52°F , 11°C
Humidity: 53%
Barometer: 30.27 inHg , 1025.1 hPa
Summary: Haze
Clouds: Clear
Visibility: 4 miles , 6 km
2022/06/30 03:15 KSYM 300315Z AUTO 00000KT 4SM HZ CLR 21/11 A3027 RMK AO2
KFGX - Flemingsburg, Kentucky, USA
Distance from station: NE 54mi, 87km
Updated: Wed, 29-Jun-2022 11:15pm EDT
Clear
Clear
 Wind from ESE
Wind: ESE 6 mph , 9 km/h
Temperature: 72°F , 22°C
Dew Point: 48°F , 9°C
Humidity: 44%
Barometer: 30.27 inHg , 1025.1 hPa
Clouds: Clear
Visibility: 10 miles , 16 km
2022/06/30 03:15 KFGX 300315Z AUTO 11005KT 10SM CLR 22/09 A3027 RMK AO2 T02170087
 
KLOU - Louisville/Bowmn, Kentucky, USA
Distance from station: W 64mi, 104km
Updated: Wed, 29-Jun-2022 10:53pm EDT
Clear
Clear
 Wind from calm
Wind: Calm
Temperature: 70°F , 21°C
Dew Point: 55°F , 13°C
Humidity: 60%
Barometer: 30.21 inHg , 1023 hPa
Clouds: Clear
Visibility: 10 miles , 16 km
2022/06/30 02:53 KLOU 300253Z 00000KT 10SM CLR 21/13 A3021 RMK AO2 SLP226 T02110133 53011
KSDF - Louisville, Kentucky, USA
Distance from station: W 68mi, 109km
Updated: Wed, 29-Jun-2022 10:56pm EDT
Clear
Clear
 Wind from calm
Wind: Calm
Temperature: 79°F , 26°C
Dew Point: 55°F , 13°C
Humidity: 45%
Barometer: 30.21 inHg , 1023 hPa
Clouds: Clear
Visibility: 10 miles , 16 km
2022/06/30 02:56 KSDF 300256Z 00000KT 10SM CLR 26/13 A3021 RMK AO2 SLP225 T02560128 53012
 
KSME - Somerset, Kentucky, USA
Distance from station: S 69mi, 111km
Updated: Wed, 29-Jun-2022 11:15pm EDT
Clear
Clear
 Wind from calm
Wind: Calm
Temperature: 70°F , 21°C
Dew Point: 57°F , 14°C
Humidity: 64%
Barometer: 30.22 inHg , 1023.4 hPa
Clouds: Clear
Visibility: 10 miles , 16 km
2022/06/30 03:15 KSME 300315Z AUTO 00000KT 10SM CLR 21/14 A3022 RMK AO2
KCVG - Covington, Kentucky, USA
Distance from station: N 70mi, 113km
Updated: Wed, 29-Jun-2022 10:52pm EDT
Clear
Clear
 Wind from calm
Wind: Calm
Temperature: 73°F , 23°C
Dew Point: 54°F , 12°C
Humidity: 50%
Barometer: 30.23 inHg , 1023.7 hPa
Clouds: Clear
Visibility: 10 miles , 16 km
2022/06/30 02:52 KCVG 300252Z 00000KT 10SM CLR 23/12 A3023 RMK AO2 SLP228 T02330122 53009
 
KLOZ - London, Kentucky, USA
Distance from station: SSE 70mi, 113km
Updated: Wed, 29-Jun-2022 10:53pm EDT
Clear
Clear
 Wind from calm
Wind: Calm
Temperature: 73°F , 23°C
Dew Point: 55°F , 13°C
Humidity: 53%
Barometer: 30.24 inHg , 1024 hPa
Clouds: Clear
Visibility: 10 miles , 16 km
2022/06/30 02:53 KLOZ 300253Z AUTO 00000KT 10SM CLR 23/13 A3024 RMK AO2 SLP226 T02330133 53016
KJKL - Noctor/Jackson, Kentucky, USA
Distance from station: ESE 72mi, 115km
Updated: Wed, 29-Jun-2022 10:53pm EDT
Clear
Clear
 Wind from calm
Wind: Calm
Temperature: 73°F , 23°C
Dew Point: 57°F , 14°C
Humidity: 57%
Barometer: 30.26 inHg , 1024.7 hPa
Clouds: Clear
Visibility: 10 miles , 16 km
2022/06/30 02:53 KJKL 300253Z AUTO 00000KT 10SM CLR 23/14 A3026 RMK AO2 SLP231 T02330139 53013
 
KIMS - Madison, Indiana, USA
Distance from station: NW 72mi, 116km
Updated: Wed, 29-Jun-2022 11:15pm EDT
Clear
Clear
 Wind from calm
Wind: Calm
Temperature: 64°F , 18°C
Dew Point: 59°F , 15°C
Humidity: 83%
Barometer: 30.25 inHg , 1024.4 hPa
Clouds: Clear
Visibility: 10 miles , 16 km
2022/06/30 03:15 KIMS 300315Z AUTO 00000KT 10SM CLR 18/15 A3025 RMK AO2
KLUK - Cincinnat/Lunken, Ohio, USA
Distance from station: N 73mi, 118km
Updated: Wed, 29-Jun-2022 10:53pm EDT
Clear
Clear
 Wind from calm
Wind: Calm
Temperature: 66°F , 19°C
Dew Point: 57°F , 14°C
Humidity: 73%
Barometer: 30.23 inHg , 1023.7 hPa
Clouds: Clear
Visibility: 10 miles , 16 km
2022/06/30 02:53 KLUK 300253Z 00000KT 10SM CLR 19/14 A3023 RMK AO2 SLP234 T01890139 53014
 
KI69 - Batavia, Ohio, USA
Distance from station: NNE 74mi, 119km
Updated: Wed, 29-Jun-2022 11:26pm EDT
Clear
Clear
 Wind from calm
Wind: Calm
Temperature: 66°F , 19°C
Dew Point: 54°F , 12°C
Humidity: 64%
Barometer: 30.26 inHg , 1024.7 hPa
Clouds: Clear
Visibility: 10 miles , 16 km
2022/06/30 03:26 KI69 300326Z AUTO 00000KT 10SM CLR 19/12 A3026 RMK AO2